createdAt,value
2022-10-17T00:02:13.885Z,4.33
2022-10-17T00:04:40.316Z,5.00
2022-10-17T00:07:06.757Z,5.03
2022-10-17T00:09:33.158Z,4.50
2022-10-17T00:11:59.631Z,4.80
2022-10-17T00:14:26.102Z,5.20
2022-10-17T00:16:52.489Z,4.83
2022-10-17T00:19:18.920Z,5.17
2022-10-17T00:21:45.330Z,4.97
2022-10-17T00:24:11.776Z,4.93
2022-10-17T00:26:38.174Z,4.50
2022-10-17T00:29:04.664Z,5.17
2022-10-17T00:31:31.169Z,5.30
2022-10-17T00:33:57.555Z,5.00
2022-10-17T00:36:26.611Z,5.67
2022-10-17T00:38:59.176Z,5.10
2022-10-17T00:41:29.483Z,5.13
2022-10-17T00:44:05.426Z,4.53
2022-10-17T00:46:36.928Z,5.10
2022-10-17T00:49:12.555Z,5.00
2022-10-17T00:51:46.640Z,5.37
2022-10-17T00:54:14.736Z,4.80
2022-10-17T00:56:41.719Z,5.97
2022-10-17T00:59:13.551Z,5.57
2022-10-17T01:01:43.364Z,5.90
2022-10-17T01:04:10.194Z,5.30
2022-10-17T01:06:36.585Z,5.20
2022-10-17T01:09:03.176Z,5.10
2022-10-17T01:11:40.384Z,4.17
2022-10-17T01:14:20.858Z,5.37
2022-10-17T01:16:52.186Z,6.00
2022-10-17T01:19:37.457Z,5.30
2022-10-17T01:22:11.903Z,5.30
2022-10-17T01:24:49.146Z,5.10
2022-10-17T01:27:29.565Z,5.20
2022-10-17T01:30:11.330Z,5.40
2022-10-17T01:32:44.855Z,5.10
2022-10-17T01:35:21.618Z,4.90
2022-10-17T01:37:55.750Z,4.63
2022-10-17T01:40:29.631Z,4.50
2022-10-17T01:43:09.271Z,5.27
2022-10-17T01:45:43.326Z,5.57
2022-10-17T01:48:23.635Z,4.80
2022-10-17T01:51:08.779Z,6.00
2022-10-17T01:53:41.564Z,5.73
2022-10-17T01:56:11.120Z,4.97
2022-10-17T01:58:45.704Z,5.10
2022-10-17T02:01:13.070Z,5.23
2022-10-17T02:03:43.208Z,5.30
2022-10-17T02:06:09.723Z,5.00
2022-10-17T02:08:45.126Z,5.50
2022-10-17T02:11:24.116Z,5.70
2022-10-17T02:14:09.683Z,4.83
2022-10-17T02:16:49.689Z,5.43
2022-10-17T02:19:34.061Z,5.50
2022-10-17T02:22:03.394Z,4.90
2022-10-17T02:24:33.276Z,4.93
2022-10-17T02:27:08.535Z,4.93
2022-10-17T02:29:45.495Z,5.80
2022-10-17T02:32:17.810Z,5.57
2022-10-17T02:34:50.217Z,5.50
2022-10-17T02:37:22.097Z,4.97
2022-10-17T02:39:50.736Z,5.10
2022-10-17T02:42:18.362Z,5.07
2022-10-17T02:44:46.908Z,4.10
2022-10-17T02:47:29.326Z,5.20
2022-10-17T02:49:58.404Z,5.47
2022-10-17T02:52:46.347Z,5.40
2022-10-17T02:55:21.432Z,5.37
2022-10-17T02:57:54.195Z,5.37
2022-10-17T03:00:24.957Z,4.70
2022-10-17T03:02:53.130Z,5.10
2022-10-17T03:05:25.413Z,4.70
2022-10-17T03:07:52.680Z,4.80
2022-10-17T03:10:19.241Z,4.83
2022-10-17T03:12:45.636Z,4.60
2022-10-17T03:15:12.839Z,5.10
2022-10-17T03:17:39.383Z,4.93
2022-10-17T03:20:07.187Z,4.57
2022-10-17T03:22:33.903Z,5.30
2022-10-17T03:25:00.357Z,4.50
2022-10-17T03:27:26.973Z,4.93
2022-10-17T03:29:53.490Z,5.07
2022-10-17T03:32:19.894Z,5.07
2022-10-17T03:34:46.292Z,4.77
2022-10-17T03:37:12.687Z,4.80
2022-10-17T03:39:39.080Z,4.93
2022-10-17T03:42:05.506Z,4.87
2022-10-17T03:44:31.899Z,4.83
2022-10-17T03:46:58.288Z,4.53
2022-10-17T03:49:24.715Z,4.20
2022-10-17T03:51:51.125Z,4.80
2022-10-17T03:54:17.494Z,5.10
2022-10-17T03:56:44.019Z,5.77
2022-10-17T03:59:14.963Z,5.20
2022-10-17T04:01:41.762Z,4.90
2022-10-17T04:04:08.527Z,4.80
2022-10-17T04:06:36.094Z,5.20
2022-10-17T04:09:03.145Z,4.27
2022-10-17T04:11:29.751Z,4.97
2022-10-17T04:13:57.678Z,5.27
2022-10-17T04:16:24.643Z,4.87
2022-10-17T04:18:55.946Z,5.07
2022-10-17T04:21:24.645Z,4.97
2022-10-17T04:23:59.216Z,5.40
2022-10-17T04:26:26.308Z,4.90
2022-10-17T04:28:52.846Z,5.03
2022-10-17T04:31:19.252Z,4.83
2022-10-17T04:33:50.230Z,5.10
2022-10-17T04:36:18.795Z,5.10
2022-10-17T04:38:45.684Z,5.30
2022-10-17T04:41:17.008Z,5.43
2022-10-17T04:43:45.659Z,6.07
2022-10-17T04:46:16.546Z,7.80
2022-10-17T04:48:42.976Z,5.33
2022-10-17T04:51:13.504Z,5.87
2022-10-17T04:53:40.994Z,5.07
2022-10-17T04:56:12.795Z,4.83
2022-10-17T04:58:39.814Z,4.30
2022-10-17T05:01:08.463Z,4.30
2022-10-17T05:03:36.084Z,4.90
2022-10-17T05:06:17.769Z,4.83
2022-10-17T05:08:45.035Z,5.13
2022-10-17T05:11:23.790Z,4.63
2022-10-17T05:13:52.888Z,4.97
2022-10-17T05:16:19.858Z,4.10
2022-10-17T05:18:52.854Z,4.90
2022-10-17T05:21:20.791Z,5.27
2022-10-17T05:23:47.479Z,5.17
2022-10-17T05:26:14.650Z,4.30
2022-10-17T05:28:41.187Z,5.00
2022-10-17T05:31:09.860Z,5.03
2022-10-17T05:33:37.227Z,4.87
2022-10-17T05:36:04.379Z,4.90
2022-10-17T05:38:31.201Z,5.90
2022-10-17T05:40:59.504Z,4.97
2022-10-17T05:43:26.881Z,5.67
2022-10-17T05:45:53.962Z,5.10
2022-10-17T05:48:20.808Z,4.90
2022-10-17T05:50:47.413Z,5.20
2022-10-17T05:53:13.881Z,4.57
2022-10-17T05:55:40.284Z,5.13
2022-10-17T05:58:07.264Z,4.67
2022-10-17T06:00:33.718Z,4.70
2022-10-17T06:03:00.148Z,4.83
2022-10-17T06:05:26.755Z,5.27
2022-10-17T06:07:55.880Z,5.40
2022-10-17T06:10:24.528Z,4.83
2022-10-17T06:12:50.980Z,4.80
2022-10-17T06:15:17.404Z,4.30
2022-10-17T06:17:43.807Z,5.20
2022-10-17T06:20:10.464Z,4.73
2022-10-17T06:22:36.884Z,5.20
2022-10-17T06:25:03.387Z,4.70
2022-10-17T06:27:29.872Z,4.90
2022-10-17T06:29:56.299Z,4.67
2022-10-17T06:32:22.719Z,5.00
2022-10-17T06:34:49.171Z,4.80
2022-10-17T06:37:15.709Z,5.27
2022-10-17T06:39:42.217Z,4.93
2022-10-17T06:42:08.603Z,4.43
2022-10-17T06:44:35.166Z,4.77
2022-10-17T06:47:01.721Z,5.10
2022-10-17T06:49:28.602Z,4.47
2022-10-17T06:51:55.034Z,4.50
2022-10-17T06:54:22.568Z,4.93
2022-10-17T06:56:49.155Z,4.80
2022-10-17T06:59:15.805Z,4.90
2022-10-17T07:01:46.080Z,4.90
2022-10-17T07:04:13.960Z,4.47
2022-10-17T07:06:40.639Z,5.30
2022-10-17T07:09:07.138Z,4.77
2022-10-17T07:11:36.995Z,5.20
2022-10-17T07:14:03.518Z,5.00
2022-10-17T07:16:30.136Z,5.60
2022-10-17T07:18:56.682Z,6.33
2022-10-17T07:21:23.531Z,6.07
2022-10-17T07:23:50.088Z,5.07
2022-10-17T07:26:18.114Z,4.90
2022-10-17T07:28:46.466Z,5.37
2022-10-17T07:31:15.919Z,4.93
2022-10-17T07:33:43.554Z,4.53
2022-10-17T07:36:10.075Z,4.70
2022-10-17T07:38:36.934Z,4.53
2022-10-17T07:41:05.541Z,4.00
2022-10-17T07:43:32.487Z,4.70
2022-10-17T07:46:00.353Z,4.10
2022-10-17T07:48:27.452Z,4.47
2022-10-17T07:50:53.839Z,4.30
2022-10-17T07:53:20.396Z,4.07
2022-10-17T07:55:48.033Z,4.67
2022-10-17T07:58:14.496Z,4.03
2022-10-17T08:00:41.141Z,4.10
2022-10-17T08:03:07.749Z,5.03
2022-10-17T08:05:34.451Z,4.77
2022-10-17T08:08:00.923Z,4.10
2022-10-17T08:10:29.278Z,4.50
2022-10-17T08:12:56.995Z,4.20
2022-10-17T08:15:27.951Z,4.70
2022-10-17T08:17:58.787Z,4.13
2022-10-17T08:20:25.293Z,4.17
2022-10-17T08:22:53.456Z,4.27
2022-10-17T08:25:19.908Z,4.50
2022-10-17T08:27:46.529Z,4.00
2022-10-17T08:30:13.249Z,4.10
2022-10-17T08:32:39.880Z,5.00
2022-10-17T08:35:06.668Z,4.00
2022-10-17T08:37:33.388Z,4.50
2022-10-17T08:40:00.148Z,4.40
2022-10-17T08:42:45.344Z,4.37
2022-10-17T08:45:35.864Z,4.50
2022-10-17T08:48:05.555Z,4.73
2022-10-17T08:50:45.674Z,4.13
2022-10-17T08:53:55.592Z,4.27
2022-10-17T08:56:55.338Z,4.30
2022-10-17T08:59:28.295Z,3.70
2022-10-17T09:02:01.799Z,4.73
2022-10-17T09:04:58.997Z,4.63
2022-10-17T09:07:48.325Z,4.40
2022-10-17T09:10:47.467Z,4.80
2022-10-17T09:13:16.821Z,5.90
2022-10-17T09:15:50.781Z,5.70
2022-10-17T09:18:32.654Z,4.87
2022-10-17T09:21:16.346Z,3.73
2022-10-17T09:23:49.066Z,4.30
2022-10-17T09:26:15.537Z,6.20
2022-10-17T09:28:43.040Z,4.73
2022-10-17T09:31:27.023Z,4.23
2022-10-17T09:33:57.036Z,5.10
2022-10-17T09:36:34.039Z,5.00
2022-10-17T09:39:04.348Z,4.10
2022-10-17T09:41:45.258Z,4.33
2022-10-17T09:44:29.572Z,4.50
2022-10-17T09:47:17.951Z,4.40
2022-10-17T09:49:47.209Z,4.43
2022-10-17T09:52:21.864Z,4.20
2022-10-17T09:54:56.023Z,4.40
2022-10-17T09:57:23.026Z,4.27
2022-10-17T10:00:05.020Z,4.50
2022-10-17T10:02:36.260Z,4.30
2022-10-17T10:05:19.156Z,5.20
2022-10-17T10:08:03.544Z,5.77
2022-10-17T10:10:31.952Z,4.67
2022-10-17T10:13:16.148Z,3.90
2022-10-17T10:15:45.256Z,4.17
2022-10-17T10:21:08.775Z,3.93
2022-10-17T10:23:40.514Z,4.50
2022-10-17T10:26:32.244Z,5.13
2022-10-17T10:29:06.497Z,4.57
2022-10-17T10:31:39.451Z,5.20
2022-10-17T10:34:26.678Z,4.40
2022-10-17T10:37:16.258Z,4.10
2022-10-17T10:39:53.240Z,4.10
2022-10-17T10:42:33.023Z,4.37
2022-10-17T10:45:42.831Z,4.43
2022-10-17T10:48:34.902Z,4.87
2022-10-17T10:51:16.982Z,4.50
2022-10-17T10:53:59.710Z,5.27
2022-10-17T10:56:29.050Z,4.30
2022-10-17T10:59:03.189Z,4.20
2022-10-17T11:01:47.877Z,4.30
2022-10-17T11:04:27.360Z,5.13
2022-10-17T11:07:01.820Z,4.20
2022-10-17T11:09:33.061Z,4.23
2022-10-17T11:12:38.994Z,4.17
2022-10-17T11:15:25.191Z,4.20
2022-10-17T11:18:02.901Z,4.70
2022-10-17T11:20:51.544Z,4.00
2022-10-17T11:23:30.098Z,6.10
2022-10-17T11:26:02.680Z,4.50
2022-10-17T11:28:29.606Z,4.60
2022-10-17T11:31:08.120Z,4.53
2022-10-17T11:33:56.024Z,4.50
2022-10-17T11:36:28.388Z,4.40
2022-10-17T11:39:03.728Z,3.87
2022-10-17T11:41:30.126Z,4.63
2022-10-17T11:44:27.544Z,4.70
2022-10-17T11:47:03.601Z,4.80
2022-10-17T11:49:46.951Z,5.23
2022-10-17T11:52:55.497Z,4.50
2022-10-17T11:55:25.811Z,4.47
2022-10-17T11:58:19.755Z,4.87
2022-10-17T12:00:49.727Z,4.53
2022-10-17T12:03:57.087Z,5.10
2022-10-17T12:06:42.445Z,4.33
2022-10-17T12:09:18.880Z,5.10
2022-10-17T12:12:23.147Z,4.90
2022-10-17T12:14:49.551Z,5.63
2022-10-17T12:17:38.811Z,4.73
2022-10-17T12:20:21.228Z,5.27
2022-10-17T12:22:49.786Z,5.40
2022-10-17T12:25:23.426Z,5.10
2022-10-17T12:27:51.078Z,5.10
2022-10-17T12:30:27.631Z,4.70
2022-10-17T12:33:12.528Z,4.80
2022-10-17T12:35:39.454Z,5.10
2022-10-17T12:38:18.233Z,5.00
2022-10-17T12:40:49.002Z,4.80
2022-10-17T12:43:15.597Z,5.17
2022-10-17T12:45:48.415Z,5.27
2022-10-17T12:48:33.533Z,4.60
2022-10-17T12:53:59.576Z,4.73
2022-10-17T12:56:36.426Z,6.57
2022-10-17T12:59:12.183Z,5.30
2022-10-17T13:01:40.519Z,5.00
2022-10-17T13:04:10.641Z,5.10
2022-10-17T13:06:44.928Z,5.03
2022-10-17T13:09:28.378Z,5.10
2022-10-17T13:11:57.499Z,5.00
2022-10-17T13:14:25.607Z,5.10
2022-10-17T13:16:54.027Z,5.60
2022-10-17T13:19:24.146Z,5.20
2022-10-17T13:22:06.447Z,5.90
2022-10-17T13:24:41.244Z,5.20
2022-10-17T13:27:23.145Z,5.13
2022-10-17T13:29:49.595Z,5.00
2022-10-17T13:32:16.067Z,5.40
2022-10-17T13:34:42.497Z,5.30
2022-10-17T13:37:13.365Z,4.83
2022-10-17T13:39:55.145Z,6.13
2022-10-17T13:42:29.390Z,5.23
2022-10-17T13:44:57.169Z,5.70
2022-10-17T13:47:26.896Z,5.00
2022-10-17T13:49:55.670Z,5.77
2022-10-17T13:52:27.323Z,5.30
2022-10-17T13:54:54.910Z,5.30
2022-10-17T13:57:25.036Z,5.00
2022-10-17T13:59:59.263Z,5.80
2022-10-17T14:02:28.542Z,5.87
2022-10-17T14:05:16.709Z,5.10
2022-10-17T14:08:11.220Z,5.07
2022-10-17T14:10:40.458Z,4.97
2022-10-17T14:13:08.364Z,5.10
2022-10-17T14:15:36.625Z,4.90
2022-10-17T14:18:07.978Z,5.00
2022-10-17T14:23:32.966Z,4.27
2022-10-17T14:26:08.593Z,4.63
2022-10-17T14:28:35.191Z,4.20
2022-10-17T14:31:32.898Z,3.97
2022-10-17T14:34:01.102Z,3.93
2022-10-17T14:36:34.935Z,5.40
2022-10-17T14:39:02.076Z,6.90
2022-10-17T14:41:47.314Z,4.90
2022-10-17T14:44:27.390Z,3.93
2022-10-17T14:46:59.263Z,4.03
2022-10-17T14:49:31.730Z,4.20
2022-10-17T14:52:18.325Z,3.50
2022-10-17T14:54:49.922Z,3.60
2022-10-17T14:57:42.643Z,3.70
2022-10-17T15:00:14.175Z,4.40
2022-10-17T15:02:40.726Z,3.70
2022-10-17T15:05:12.799Z,3.70
2022-10-17T15:07:39.744Z,3.90
2022-10-17T15:10:06.946Z,3.50
2022-10-17T15:12:33.413Z,3.13
2022-10-17T15:15:00.122Z,3.40
2022-10-17T15:17:28.173Z,3.07
2022-10-17T15:19:55.295Z,3.70
2022-10-17T15:22:21.779Z,3.33
2022-10-17T15:24:48.432Z,3.63
2022-10-17T15:27:23.734Z,3.57
2022-10-17T15:29:51.471Z,3.80
2022-10-17T15:32:17.894Z,4.40
2022-10-17T15:34:44.993Z,3.80
2022-10-17T15:37:33.830Z,3.93
2022-10-17T15:40:00.393Z,3.73
2022-10-17T15:42:29.291Z,4.60
2022-10-17T15:44:56.611Z,4.40
2022-10-17T15:47:27.332Z,4.50
2022-10-17T15:49:55.409Z,4.40
2022-10-17T15:52:22.577Z,3.90
2022-10-17T15:54:49.521Z,3.40
2022-10-17T15:57:19.550Z,4.50
2022-10-17T15:59:47.020Z,4.30
2022-10-17T16:02:14.961Z,4.47
2022-10-17T16:04:42.022Z,3.47
2022-10-17T16:07:08.720Z,4.00
2022-10-17T16:09:37.273Z,4.20
2022-10-17T16:12:13.985Z,4.13
2022-10-17T16:14:40.545Z,3.90
2022-10-17T16:17:08.938Z,4.27
2022-10-17T16:19:35.342Z,4.33
2022-10-17T16:22:04.507Z,4.20
2022-10-17T16:24:31.199Z,4.30
2022-10-17T16:26:57.649Z,4.33
2022-10-17T16:29:24.125Z,4.00
2022-10-17T16:31:50.617Z,5.00
2022-10-17T16:34:17.041Z,4.77
2022-10-17T16:36:43.564Z,4.50
2022-10-17T16:39:10.048Z,4.97
2022-10-17T16:41:38.735Z,4.60
2022-10-17T16:44:08.100Z,4.00
2022-10-17T16:46:37.159Z,4.40
2022-10-17T16:49:04.823Z,4.47
2022-10-17T16:51:33.671Z,4.87
2022-10-17T16:54:00.281Z,4.33
2022-10-17T16:56:29.831Z,5.17
2022-10-17T16:58:56.897Z,4.97
2022-10-17T17:01:24.823Z,4.47
2022-10-17T17:03:52.635Z,7.00
2022-10-17T17:06:25.955Z,4.93
2022-10-17T17:08:53.456Z,5.40
2022-10-17T17:11:22.003Z,5.73
2022-10-17T17:13:48.624Z,5.73
2022-10-17T17:16:18.964Z,6.10
2022-10-17T17:18:46.111Z,5.27
2022-10-17T17:21:13.433Z,6.07
2022-10-17T17:23:41.615Z,6.20
2022-10-17T17:26:11.701Z,5.30
2022-10-17T17:28:38.519Z,5.47
2022-10-17T17:31:10.459Z,5.90
2022-10-17T17:33:38.882Z,5.43
2022-10-17T17:36:06.251Z,5.83
2022-10-17T17:38:35.941Z,5.90
2022-10-17T17:41:03.806Z,6.20
2022-10-17T17:43:30.434Z,6.00
2022-10-17T17:45:56.863Z,5.40
2022-10-17T17:48:23.389Z,6.67
2022-10-17T17:50:49.856Z,5.67
2022-10-17T17:53:17.675Z,5.50
2022-10-17T17:55:44.544Z,6.40
2022-10-17T17:58:12.302Z,7.53
2022-10-17T18:00:40.557Z,7.93
2022-10-17T18:03:07.213Z,8.87
2022-10-17T18:05:33.693Z,8.20
2022-10-17T18:08:00.133Z,7.37
2022-10-17T18:10:28.744Z,9.73
2022-10-17T18:12:55.239Z,8.30
2022-10-17T18:15:21.731Z,11.47
2022-10-17T18:17:49.126Z,8.17
2022-10-17T18:20:15.713Z,8.97
2022-10-17T18:22:42.141Z,9.60
2022-10-17T18:25:08.734Z,13.20
2022-10-17T18:27:35.315Z,11.13
2022-10-17T18:30:01.969Z,11.23
2022-10-17T18:32:31.793Z,9.87
2022-10-17T18:34:58.572Z,11.00
2022-10-17T18:37:25.192Z,11.10
2022-10-17T18:39:54.027Z,10.83
2022-10-17T18:42:20.636Z,10.10
2022-10-17T18:44:47.823Z,10.80
2022-10-17T18:47:14.229Z,12.10
2022-10-17T18:49:40.703Z,10.20
2022-10-17T18:52:07.137Z,9.70
2022-10-17T18:54:34.627Z,8.80
2022-10-17T18:57:01.035Z,7.77
2022-10-17T18:59:27.581Z,7.40
2022-10-17T19:01:54.076Z,7.20
2022-10-17T19:04:20.506Z,6.80
2022-10-17T19:06:46.972Z,6.20
2022-10-17T19:09:14.715Z,7.70
2022-10-17T19:11:42.138Z,7.30
2022-10-17T19:14:13.079Z,6.90
2022-10-17T19:16:48.146Z,6.67
2022-10-17T19:19:17.622Z,7.30
2022-10-17T19:21:44.734Z,7.17
2022-10-17T19:24:17.189Z,7.77
2022-10-17T19:26:46.368Z,7.70
2022-10-17T19:29:14.593Z,8.30
2022-10-17T19:31:41.649Z,6.87
2022-10-17T19:34:08.209Z,6.00
2022-10-17T19:36:35.329Z,6.10
2022-10-17T19:39:05.371Z,6.40
2022-10-17T19:41:32.372Z,6.20
2022-10-17T19:44:00.459Z,6.30
2022-10-17T19:46:28.715Z,6.23
2022-10-17T19:48:57.743Z,6.97
2022-10-17T19:51:26.199Z,7.77
2022-10-17T19:53:54.583Z,8.10
2022-10-17T19:56:22.637Z,8.70
2022-10-17T19:58:49.922Z,8.60
2022-10-17T20:01:25.038Z,8.57
2022-10-17T20:03:52.295Z,7.13
2022-10-17T20:06:18.845Z,6.40
2022-10-17T20:08:45.395Z,5.50
2022-10-17T20:11:15.093Z,6.20
2022-10-17T20:13:41.665Z,5.43
2022-10-17T20:16:11.212Z,5.27
2022-10-17T20:18:38.203Z,5.50
2022-10-17T20:21:07.896Z,5.73
2022-10-17T20:23:35.122Z,5.20
2022-10-17T20:26:18.843Z,4.60
2022-10-17T20:28:50.565Z,4.73
2022-10-17T20:31:17.396Z,4.90
2022-10-17T20:33:43.821Z,3.90
2022-10-17T20:36:12.711Z,4.00
2022-10-17T20:38:39.859Z,3.83
2022-10-17T20:41:10.117Z,3.50
2022-10-17T20:43:37.512Z,3.63
2022-10-17T20:46:16.960Z,3.90
2022-10-17T20:48:53.940Z,3.53
2022-10-17T20:51:21.290Z,3.30
2022-10-17T20:53:48.632Z,3.70
2022-10-17T20:56:21.805Z,3.80
2022-10-17T20:59:00.401Z,3.30
2022-10-17T21:01:28.505Z,3.80
2022-10-17T21:03:55.167Z,4.00
2022-10-17T21:06:22.258Z,4.17
2022-10-17T21:08:49.651Z,3.80
2022-10-17T21:11:17.147Z,4.20
2022-10-17T21:13:44.310Z,4.30
2022-10-17T21:16:17.544Z,4.23
2022-10-17T21:18:44.842Z,5.40
2022-10-17T21:21:17.419Z,4.47
2022-10-17T21:23:45.413Z,4.73
2022-10-17T21:26:12.731Z,4.60
2022-10-17T21:28:40.498Z,4.67
2022-10-17T21:31:21.899Z,4.53
2022-10-17T21:33:50.981Z,4.73
2022-10-17T21:36:18.481Z,4.53
2022-10-17T21:38:46.513Z,4.27
2022-10-17T21:41:15.010Z,4.70
2022-10-17T21:43:43.304Z,4.33
2022-10-17T21:46:15.778Z,4.63
2022-10-17T21:48:43.272Z,4.77
2022-10-17T21:51:12.225Z,4.30
2022-10-17T21:53:38.956Z,4.27
2022-10-17T21:56:09.257Z,4.90
2022-10-17T21:58:35.865Z,3.60
2022-10-17T22:01:08.029Z,4.53
2022-10-17T22:03:35.235Z,4.13
2022-10-17T22:06:13.073Z,3.60
2022-10-17T22:08:49.460Z,4.23
2022-10-17T22:11:22.243Z,3.80
2022-10-17T22:13:48.750Z,4.07
2022-10-17T22:16:16.304Z,4.37
2022-10-17T22:18:43.049Z,4.30
2022-10-17T22:21:15.308Z,4.70
2022-10-17T22:23:43.839Z,4.40
2022-10-17T22:26:11.181Z,4.40
2022-10-17T22:28:39.063Z,4.27
2022-10-17T22:31:05.779Z,4.03
2022-10-17T22:33:33.611Z,4.37
2022-10-17T22:36:00.012Z,3.23
2022-10-17T22:38:26.525Z,3.30
2022-10-17T22:40:53.124Z,3.90
2022-10-17T22:43:19.590Z,3.90
2022-10-17T22:45:57.951Z,3.97
2022-10-17T22:48:25.557Z,3.73
2022-10-17T22:50:52.994Z,4.20
2022-10-17T22:53:25.669Z,4.00
2022-10-17T22:56:12.900Z,3.50
2022-10-17T22:58:39.730Z,4.00
2022-10-17T23:01:35.339Z,3.93
2022-10-17T23:04:01.815Z,4.30
2022-10-17T23:06:28.336Z,4.40
2022-10-17T23:08:55.355Z,4.30
2022-10-17T23:11:21.885Z,3.57
2022-10-17T23:13:48.382Z,4.50
2022-10-17T23:16:14.857Z,4.03
2022-10-17T23:18:41.319Z,4.47
2022-10-17T23:21:08.234Z,3.70
2022-10-17T23:23:34.953Z,3.90
2022-10-17T23:26:10.849Z,4.40
2022-10-17T23:28:37.777Z,3.90
2022-10-17T23:31:30.504Z,3.83
2022-10-17T23:33:58.382Z,4.50
2022-10-17T23:36:24.797Z,3.97
2022-10-17T23:38:53.722Z,4.40
2022-10-17T23:41:22.881Z,4.20
2022-10-17T23:43:49.354Z,4.50
2022-10-17T23:46:15.758Z,4.40
2022-10-17T23:48:42.321Z,12.00
2022-10-17T23:51:09.856Z,4.70
2022-10-17T23:53:37.571Z,4.60
2022-10-17T23:56:05.211Z,4.67
2022-10-17T23:58:31.692Z,4.20
